Time;durP1;ratioP1;P1;durP2;ratioP2;P2;SDS_P1;SDS_P2;PMS_P1;PMS_P2;Temp;Humidity;BMP_temperature;BMP_pressure;BME280_temperature;BME280_humidity;BME280_pressure;Samples;Min_cycle;Max_cycle;Signal;HPM_P1;HPM_P2
2022/03/06 00:01:04;;;;;;;14.63;6.18;;;;;;;5.84;30.18;101879.97;5091435;28;20135;-75
2022/03/06 00:03:31;;;;;;;14.57;5.95;;;;;;;5.96;29.85;101879.13;5095724;28;20174;-75
2022/03/06 00:05:58;;;;;;;13.95;5.47;;;;;;;6.09;29.50;101873.84;5094748;28;20127;-75
2022/03/06 00:08:24;;;;;;;12.52;6.18;;;;;;;6.08;29.47;101875.66;5094277;28;20435;-75
2022/03/06 00:10:51;;;;;;;13.40;5.80;;;;;;;5.82;29.73;101871.22;5094752;28;20444;-75
2022/03/06 00:13:17;;;;;;;12.90;6.47;;;;;;;5.03;30.90;101862.06;5094275;28;20044;-75
2022/03/06 00:15:44;;;;;;;18.10;6.68;;;;;;;4.61;32.19;101868.25;5092498;28;20071;-75
2022/03/06 00:18:10;;;;;;;13.40;6.43;;;;;;;4.85;31.95;101865.88;5094915;28;20044;-75
2022/03/06 00:20:37;;;;;;;18.42;8.75;;;;;;;5.13;31.60;101865.00;5095004;28;20123;-76
2022/03/06 00:23:03;;;;;;;14.98;6.53;;;;;;;4.84;31.70;101864.19;5093500;28;20127;-76
2022/03/06 00:25:30;;;;;;;17.05;6.50;;;;;;;5.14;31.41;101859.56;5094169;28;20127;-75
2022/03/06 00:27:56;;;;;;;17.58;7.30;;;;;;;5.72;30.73;101866.47;5093032;28;20127;-74
2022/03/06 00:30:24;;;;;;;14.00;5.97;;;;;;;5.62;30.99;101862.69;5094552;28;20135;-74
2022/03/06 00:32:50;;;;;;;14.82;7.15;;;;;;;5.92;30.54;101864.31;5094860;28;20059;-74
2022/03/06 00:35:17;;;;;;;14.65;6.20;;;;;;;5.98;30.19;101861.25;5093989;28;20079;-75
2022/03/06 00:37:43;;;;;;;12.70;6.20;;;;;;;6.11;30.00;101862.13;5094353;28;20132;-76
2022/03/06 00:40:10;;;;;;;16.13;6.97;;;;;;;5.35;30.56;101861.81;5088897;28;20071;-75
2022/03/06 00:42:37;;;;;;;15.60;6.38;;;;;;;5.28;30.92;101861.38;5094235;28;20135;-75
2022/03/06 00:45:03;;;;;;;16.42;7.78;;;;;;;5.77;30.26;101863.53;5094013;28;20047;-74
2022/03/06 00:47:30;;;;;;;15.00;6.20;;;;;;;4.91;31.11;101870.81;5093871;28;20067;-74
2022/03/06 00:49:57;;;;;;;13.27;6.50;;;;;;;4.86;31.32;101865.78;5092393;28;20044;-75
2022/03/06 00:52:24;;;;;;;15.48;5.60;;;;;;;5.50;30.86;101874.16;5093501;28;20539;-75
2022/03/06 00:54:50;;;;;;;16.75;8.75;;;;;;;5.61;30.44;101874.31;5094027;28;20104;-74
2022/03/06 00:57:16;;;;;;;18.10;7.82;;;;;;;5.84;30.16;101869.31;5093081;28;20132;-75
2022/03/06 00:59:43;;;;;;;15.95;5.68;;;;;;;5.90;30.38;101871.53;5088758;28;20384;-75
2022/03/06 01:02:09;;;;;;;18.02;6.15;;;;;;;6.02;30.26;101877.88;5092069;28;20070;-74
2022/03/06 01:04:37;;;;;;;14.15;6.85;;;;;;;5.63;31.40;101877.75;5092859;28;20130;-74
2022/03/06 01:07:04;;;;;;;19.25;6.75;;;;;;;5.86;31.57;101878.88;5092992;28;20097;-76
2022/03/06 01:09:31;;;;;;;14.32;7.00;;;;;;;5.85;31.75;101881.66;5093346;28;20467;-75
2022/03/06 01:11:57;;;;;;;17.00;6.75;;;;;;;5.57;31.96;101875.47;5093037;28;20527;-75
2022/03/06 01:14:24;;;;;;;22.05;6.72;;;;;;;5.96;31.35;101879.97;5093623;28;20498;-75
2022/03/06 01:16:50;;;;;;;14.15;6.28;;;;;;;5.89;31.73;101885.81;5091225;28;20128;-75
2022/03/06 01:19:17;;;;;;;15.77;6.72;;;;;;;5.92;31.50;101883.81;5092035;28;20071;-74
2022/03/06 01:21:44;;;;;;;15.25;6.90;;;;;;;5.98;31.56;101879.91;5092774;28;20048;-74
2022/03/06 01:24:15;;;;;;;;;;;;;;;6.05;31.36;101873.22;5093145;28;20134;-74
2022/03/06 01:26:42;;;;;;;14.32;6.28;;;;;;;5.84;31.52;101874.63;5081556;28;19956;-76
2022/03/06 01:29:08;;;;;;;13.93;7.13;;;;;;;5.94;31.33;101868.59;5091204;28;20078;-74
2022/03/06 01:31:35;;;;;;;15.38;6.57;;;;;;;5.81;31.56;101865.03;5093162;28;20143;-75
2022/03/06 01:34:03;;;;;;;15.45;7.13;;;;;;;5.95;31.42;101864.13;5092968;28;20127;-75
2022/03/06 01:36:31;;;;;;;14.63;6.30;;;;;;;5.97;31.44;101865.69;5093528;28;20074;-75
2022/03/06 01:38:58;;;;;;;15.50;7.03;;;;;;;5.73;31.84;101862.88;5093105;28;20076;-74
2022/03/06 01:41:24;;;;;;;12.57;7.32;;;;;;;6.03;31.40;101864.44;5092988;28;20040;-74
2022/03/06 01:43:51;;;;;;;16.65;7.32;;;;;;;5.96;31.29;101865.81;5092419;28;20054;-74
2022/03/06 01:46:18;;;;;;;14.85;7.25;;;;;;;6.01;31.36;101866.38;5093201;28;20040;-74
2022/03/06 01:48:45;;;;;;;17.42;8.80;;;;;;;6.08;31.06;101873.00;5074155;28;20060;-75
2022/03/06 01:51:11;;;;;;;16.92;7.45;;;;;;;5.85;31.60;101868.34;5091898;28;20060;-76
2022/03/06 01:53:38;;;;;;;13.50;7.20;;;;;;;5.94;31.33;101875.72;5091971;28;20058;-75
2022/03/06 01:56:05;;;;;;;13.45;7.30;;;;;;;5.30;32.22;101864.78;5092594;28;20417;-75
2022/03/06 01:58:32;;;;;;;18.80;8.15;;;;;;;5.52;31.62;101872.25;5093064;28;20123;-75
2022/03/06 02:01:00;;;;;;;21.85;10.75;;;;;;;5.53;31.62;101873.97;5093019;28;20043;-75
2022/03/06 02:03:26;;;;;;;14.85;8.80;;;;;;;5.24;31.51;101873.16;5082839;28;20123;-75
2022/03/06 02:09:39;;;;;;;16.67;8.35;;;;;;;5.50;30.96;101869.69;5089559;28;20050;-75
2022/03/06 02:12:22;;;;;;;13.85;7.57;;;;;;;5.62;30.97;101860.03;5090170;28;20054;-74
2022/03/06 02:14:54;;;;;;;16.17;8.32;;;;;;;5.79;31.05;101861.59;5051490;28;20132;-75
2022/03/06 02:17:21;;;;;;;;;;;;;;;5.70;31.35;101860.41;5052800;28;20063;-75
2022/03/06 02:19:55;;;;;;;14.60;7.93;;;;;;;5.89;31.07;101856.53;5051625;28;20338;-75
2022/03/06 02:22:23;;;;;;;14.82;7.97;;;;;;;5.97;31.02;101852.38;5051920;28;20052;-75
2022/03/06 02:24:50;;;;;;;16.60;7.63;;;;;;;6.03;30.76;101853.78;5052863;28;20061;-75
2022/03/06 02:27:17;;;;;;;12.70;7.78;;;;;;;5.57;31.58;101848.84;5060151;28;20131;-75
2022/03/06 02:29:44;;;;;;;13.75;7.78;;;;;;;5.91;31.01;101850.16;5089607;28;20147;-75
2022/03/06 02:32:14;;;;;;;16.58;7.47;;;;;;;5.48;31.57;101844.13;5091667;28;20410;-75
2022/03/06 02:34:42;;;;;;;16.20;8.05;;;;;;;5.87;31.43;101839.78;5081817;28;20052;-75
2022/03/06 02:37:10;;;;;;;16.45;7.68;;;;;;;5.91;31.42;101843.97;5092446;28;20131;-75
2022/03/06 02:39:36;;;;;;;19.13;7.93;;;;;;;5.87;31.71;101835.34;5092220;28;20048;-75
2022/03/06 02:42:04;;;;;;;18.05;8.10;;;;;;;5.80;31.65;101846.47;5092105;28;20048;-75
2022/03/06 02:44:31;;;;;;;15.65;8.80;;;;;;;5.83;31.94;101835.63;5091200;28;20064;-75
2022/03/06 02:46:57;;;;;;;14.90;7.95;;;;;;;5.85;31.39;101845.22;5092607;28;20052;-75
2022/03/06 02:49:24;;;;;;;19.00;8.50;;;;;;;5.59;32.14;101846.94;5092715;28;20487;-76
2022/03/06 02:51:50;;;;;;;19.80;7.85;;;;;;;5.89;31.22;101843.22;5092480;28;20491;-76
2022/03/06 02:54:17;;;;;;;16.73;7.97;;;;;;;6.00;30.93;101838.00;5092075;28;20067;-75
2022/03/06 02:56:44;;;;;;;17.98;7.60;;;;;;;5.75;31.83;101833.47;5089273;28;20461;-75
2022/03/06 02:59:11;;;;;;;14.73;7.78;;;;;;;5.96;31.36;101832.03;5089839;28;20127;-75
2022/03/06 03:01:41;;;;;;;15.65;8.05;;;;;;;5.85;31.35;101828.41;5092560;28;20054;-76
2022/03/06 03:04:08;;;;;;;15.35;7.30;;;;;;;5.71;31.17;101832.81;5092403;28;20044;-75
2022/03/06 03:06:35;;;;;;;20.92;8.90;;;;;;;5.34;31.83;101830.84;5091869;28;20099;-76
2022/03/06 03:09:04;;;;;;;18.05;7.20;;;;;;;5.58;31.24;101833.72;5092494;28;20123;-75
2022/03/06 03:11:32;;;;;;;15.63;7.18;;;;;;;5.63;31.28;101839.59;5091805;28;20050;-75
2022/03/06 03:14:00;;;;;;;12.60;7.10;;;;;;;5.11;31.83;101827.88;5076632;28;20044;-75
2022/03/06 03:16:27;;;;;;;12.65;6.82;;;;;;;5.16;31.81;101831.09;5095713;28;20396;-75
2022/03/06 03:18:53;;;;;;;15.95;7.00;;;;;;;5.61;31.16;101837.03;5094867;28;20052;-75
2022/03/06 03:21:20;;;;;;;16.20;7.00;;;;;;;5.62;30.94;101837.91;5096127;28;20151;-76
2022/03/06 03:23:46;;;;;;;16.35;7.28;;;;;;;5.39;31.12;101834.94;5096148;28;20070;-76
2022/03/06 03:26:12;;;;;;;13.30;6.90;;;;;;;5.49;30.82;101837.84;5095878;28;20039;-75
2022/03/06 03:28:39;;;;;;;15.25;7.32;;;;;;;5.16;31.65;101836.41;5095432;28;20048;-75
2022/03/06 03:31:05;;;;;;;15.38;7.70;;;;;;;5.01;31.29;101834.72;5094252;28;20483;-76
2022/03/06 03:33:32;;;;;;;19.45;9.05;;;;;;;4.77;31.94;101840.63;5096845;28;20536;-74
2022/03/06 03:35:58;;;;;;;21.20;8.13;;;;;;;5.31;31.21;101841.69;5096664;28;20056;-74
2022/03/06 03:38:24;;;;;;;17.63;7.50;;;;;;;5.54;30.98;101843.72;5095216;28;20122;-74
2022/03/06 03:40:53;;;;;;;13.55;6.85;;;;;;;5.46;30.92;101844.22;5094395;28;20127;-75
2022/03/06 03:43:19;;;;;;;14.20;6.38;;;;;;;5.29;31.10;101844.47;5094743;28;20064;-75
2022/03/06 03:45:45;;;;;;;12.23;6.18;;;;;;;5.57;30.43;101850.66;5092427;28;20068;-76
2022/03/06 03:48:12;;;;;;;17.60;6.80;;;;;;;5.56;30.61;101852.47;5095186;28;20107;-75
2022/03/06 03:50:38;;;;;;;13.80;5.40;;;;;;;4.91;32.02;101849.56;5077548;28;20075;-76
2022/03/06 03:53:05;;;;;;;12.20;5.63;;;;;;;5.10;31.52;101854.56;5095403;28;20075;-74
2022/03/06 03:55:32;;;;;;;13.43;5.38;;;;;;;5.24;30.99;101850.06;5095916;28;20052;-75
2022/03/06 03:57:58;;;;;;;10.65;4.88;;;;;;;4.80;31.62;101852.88;5095097;28;20498;-75
2022/03/06 04:00:25;;;;;;;13.00;6.72;;;;;;;4.96;31.31;101858.94;5095019;28;20135;-75
2022/03/06 04:02:51;;;;;;;10.55;5.10;;;;;;;4.67;31.34;101855.44;5093887;28;20439;-74
2022/03/06 04:05:18;;;;;;;9.85;3.70;;;;;;;4.20;32.15;101853.78;5094005;28;20044;-75
2022/03/06 04:07:44;;;;;;;17.55;4.32;;;;;;;4.46;31.89;101857.59;5095150;28;20151;-73
2022/03/06 04:10:11;;;;;;;13.32;3.83;;;;;;;4.71;31.37;101853.44;5094304;28;20043;-75
2022/03/06 04:12:37;;;;;;;13.43;4.75;;;;;;;4.44;31.80;101853.31;5093364;28;20442;-74
2022/03/06 04:15:04;;;;;;;12.20;6.40;;;;;;;4.74;31.42;101851.44;5094889;28;20455;-75
2022/03/06 04:17:30;;;;;;;8.07;3.72;;;;;;;4.38;31.49;101857.19;5095054;28;20119;-74
2022/03/06 04:19:57;;;;;;;7.30;3.00;;;;;;;3.75;32.05;101849.38;5094695;28;20048;-73
2022/03/06 04:22:23;;;;;;;9.38;3.80;;;;;;;3.96;31.68;101855.25;5095350;28;20546;-74
2022/03/06 04:24:50;;;;;;;7.75;3.00;;;;;;;3.79;31.77;101850.91;5092913;28;20123;-74
2022/03/06 04:27:16;;;;;;;8.70;2.80;;;;;;;4.45;31.06;101839.94;5077064;28;20115;-74
2022/03/06 04:29:43;;;;;;;7.68;3.40;;;;;;;4.29;30.77;101850.59;5094391;28;20048;-75
2022/03/06 04:32:09;;;;;;;9.38;4.20;;;;;;;4.50;30.65;101843.16;5094396;28;20113;-75
2022/03/06 04:34:36;;;;;;;8.70;3.75;;;;;;;4.57;30.48;101851.63;5094792;28;20135;-74
2022/03/06 04:37:03;;;;;;;8.45;4.18;;;;;;;4.64;30.72;101852.09;5093804;28;20047;-75
2022/03/06 04:39:29;;;;;;;10.18;5.15;;;;;;;4.29;30.65;101855.06;5094693;28;20101;-75
2022/03/06 04:41:56;;;;;;;12.48;4.78;;;;;;;4.21;30.60;101866.16;5094344;28;20058;-75
2022/03/06 04:44:23;;;;;;;8.18;4.13;;;;;;;4.19;30.77;101864.53;5093279;28;20040;-75
2022/03/06 04:46:49;;;;;;;8.43;4.13;;;;;;;4.29;30.66;101861.22;5094608;28;20055;-75
2022/03/06 04:49:16;;;;;;;17.85;8.07;;;;;;;4.60;30.41;101867.41;5093826;28;20040;-75
2022/03/06 04:51:42;;;;;;;11.70;5.80;;;;;;;4.62;30.12;101864.63;5093709;28;20050;-75
2022/03/06 04:54:09;;;;;;;11.82;5.07;;;;;;;4.50;30.31;101869.75;5094274;28;20131;-75
2022/03/06 04:56:35;;;;;;;12.10;5.10;;;;;;;4.33;30.23;101869.88;5094140;28;20138;-74
2022/03/06 04:59:02;;;;;;;10.13;5.50;;;;;;;4.32;30.16;101866.38;5093514;28;20071;-74
2022/03/06 05:01:29;;;;;;;13.15;5.30;;;;;;;3.74;30.88;101860.94;5094222;28;20091;-75
2022/03/06 05:03:56;;;;;;;13.65;5.72;;;;;;;4.04;30.26;101861.84;5093878;28;20487;-73
2022/03/06 05:06:23;;;;;;;12.25;5.78;;;;;;;4.46;29.47;101862.91;5093324;28;20511;-74
2022/03/06 05:08:49;;;;;;;12.40;5.95;;;;;;;4.56;29.29;101869.38;5092004;28;20490;-74
2022/03/06 05:11:16;;;;;;;10.45;5.72;;;;;;;4.86;28.63;101865.78;5092392;28;20133;-74
2022/03/06 05:13:43;;;;;;;11.38;5.53;;;;;;;4.72;28.20;101860.47;5092996;28;20044;-74
2022/03/06 05:16:09;;;;;;;11.88;5.65;;;;;;;5.10;28.35;101857.22;5093534;28;20475;-74
2022/03/06 05:18:36;;;;;;;12.15;6.00;;;;;;;5.07;27.96;101852.09;5093055;28;20103;-75
2022/03/06 05:21:03;;;;;;;13.75;6.22;;;;;;;5.17;28.21;101851.41;5092747;28;20048;-75
2022/03/06 05:23:29;;;;;;;18.67;6.07;;;;;;;5.12;28.25;101856.19;5093382;28;20122;-75
2022/03/06 05:25:57;;;;;;;12.73;6.82;;;;;;;4.91;28.27;101865.50;5093402;28;20076;-75
2022/03/06 05:28:25;;;;;;;11.13;5.97;;;;;;;5.00;28.26;101856.94;5093922;28;20070;-75
2022/03/06 05:30:52;;;;;;;10.10;5.82;;;;;;;4.95;28.37;101859.03;5093426;28;20055;-75
2022/03/06 05:33:19;;;;;;;12.07;5.95;;;;;;;5.00;28.94;101854.28;5092829;28;20050;-74
2022/03/06 05:35:46;;;;;;;13.75;6.03;;;;;;;5.11;28.31;101857.13;5093240;28;20112;-74
2022/03/06 05:38:13;;;;;;;13.00;5.68;;;;;;;5.17;28.21;101856.72;5093615;28;20056;-75
2022/03/06 05:40:40;;;;;;;13.93;6.95;;;;;;;5.00;28.45;101857.78;5090930;28;20102;-75
2022/03/06 05:43:06;;;;;;;10.73;6.22;;;;;;;5.15;28.19;101853.31;5092714;28;20131;-75
2022/03/06 05:45:33;;;;;;;12.50;6.78;;;;;;;5.02;28.38;101855.03;5093396;28;20071;-74
2022/03/06 05:47:59;;;;;;;13.73;6.72;;;;;;;5.03;28.59;101860.25;5092115;28;20380;-75
2022/03/06 05:50:26;;;;;;;16.50;8.57;;;;;;;4.93;28.58;101855.63;5092939;28;20044;-75
2022/03/06 05:52:52;;;;;;;12.77;6.47;;;;;;;5.24;28.45;101847.41;5093267;28;20127;-75
2022/03/06 05:55:19;;;;;;;15.82;7.05;;;;;;;5.05;28.41;101849.53;5092289;28;20119;-75
2022/03/06 05:57:46;;;;;;;11.43;6.80;;;;;;;5.29;28.33;101855.97;5091694;28;20047;-76
2022/03/06 06:00:16;;;;;;;13.82;6.10;;;;;;;5.34;28.45;101855.66;5093575;28;20126;-75
2022/03/06 06:02:42;;;;;;;14.32;6.32;;;;;;;5.26;28.29;101858.81;5093055;28;20044;-75
2022/03/06 06:05:09;;;;;;;11.63;6.15;;;;;;;5.10;28.74;101854.56;5093013;28;20131;-76
2022/03/06 06:07:36;;;;;;;9.18;5.93;;;;;;;4.57;29.06;101859.59;5092787;28;20077;-75
2022/03/06 06:10:04;;;;;;;12.20;5.82;;;;;;;4.40;29.44;101859.75;5107526;22;20099;-71
2022/03/06 06:12:31;;;;;;;12.95;5.65;;;;;;;4.90;28.75;101863.78;5072378;28;20492;-72
2022/03/06 06:14:57;;;;;;;13.88;5.65;;;;;;;4.76;28.68;101862.84;5071859;28;20049;-72
2022/03/06 06:17:24;;;;;;;14.48;7.30;;;;;;;4.32;28.80;101865.50;5071984;28;20124;-72
2022/03/06 06:19:50;;;;;;;16.67;7.88;;;;;;;4.39;29.22;101866.88;5072141;28;20113;-72
2022/03/06 06:22:17;;;;;;;11.02;5.60;;;;;;;3.70;29.37;101868.22;5071834;28;20447;-72
2022/03/06 06:24:44;;;;;;;14.50;6.10;;;;;;;4.33;28.95;101861.91;5071261;28;20076;-72
2022/03/06 06:27:10;;;;;;;10.18;5.95;;;;;;;4.16;29.43;101857.59;5071073;28;20123;-72
2022/03/06 06:29:37;;;;;;;12.60;6.03;;;;;;;4.39;29.17;101855.41;5066277;28;20068;-72
2022/03/06 06:32:04;;;;;;;17.88;7.10;;;;;;;4.89;28.51;101862.06;5051411;28;20481;-72
2022/03/06 06:34:32;;;;;;;10.63;5.60;;;;;;;4.40;28.73;101865.94;5050911;28;20120;-72
2022/03/06 06:36:58;;;;;;;12.05;6.13;;;;;;;4.94;28.22;101860.00;5051346;28;20543;-72
2022/03/06 06:39:28;;;;;;;16.55;8.32;;;;;;;4.81;28.34;101859.91;5051902;28;20447;-72
2022/03/06 06:41:54;;;;;;;10.10;6.40;;;;;;;3.53;29.96;101863.03;5052396;28;20045;-72
2022/03/06 06:44:20;;;;;;;9.68;5.95;;;;;;;3.63;29.53;101861.56;5051609;28;20041;-72
2022/03/06 06:46:47;;;;;;;13.95;5.78;;;;;;;3.90;29.24;101864.44;5050417;28;20527;-73
2022/03/06 06:49:14;;;;;;;9.57;6.32;;;;;;;4.06;28.45;101859.06;5054062;28;20069;-72
2022/03/06 06:51:40;;;;;;;11.82;6.32;;;;;;;4.49;28.88;101867.19;5049878;28;20072;-72
2022/03/06 06:54:06;;;;;;;10.77;6.57;;;;;;;4.73;27.93;101865.69;5051776;28;20127;-71
2022/03/06 06:56:33;;;;;;;10.13;6.38;;;;;;;4.31;28.39;101866.44;5051832;28;20100;-72
2022/03/06 06:58:59;;;;;;;13.73;6.65;;;;;;;4.54;28.17;101871.25;5051886;28;20158;-72
2022/03/06 07:01:26;;;;;;;12.43;5.63;;;;;;;4.11;28.97;101878.25;5051538;28;20076;-72
2022/03/06 07:03:52;;;;;;;11.90;6.30;;;;;;;3.48;29.72;101879.22;5051664;28;20068;-71
2022/03/06 07:06:19;;;;;;;9.48;5.82;;;;;;;2.61;30.84;101884.78;5051865;28;20409;-72
2022/03/06 07:08:45;;;;;;;13.43;6.00;;;;;;;3.58;29.75;101891.00;5041538;28;20450;-72
2022/03/06 07:11:12;;;;;;;7.88;4.63;;;;;;;3.42;30.44;101891.97;5031139;28;20128;-72
2022/03/06 07:13:38;;;;;;;8.13;5.07;;;;;;;3.65;29.34;101891.50;5030691;28;20050;-71
2022/03/06 07:16:05;;;;;;;9.05;4.68;;;;;;;3.03;30.29;101895.81;5030397;28;20049;-70
2022/03/06 07:18:32;;;;;;;7.78;4.93;;;;;;;3.84;29.29;101897.50;5031094;28;20096;-71
2022/03/06 07:20:58;;;;;;;12.70;5.22;;;;;;;3.76;29.25;101889.13;5031231;28;20185;-70
2022/03/06 07:23:25;;;;;;;8.10;4.60;;;;;;;4.29;28.32;101887.78;5031444;28;20045;-71
2022/03/06 07:25:51;;;;;;;9.88;4.10;;;;;;;4.21;28.63;101882.09;5025055;28;20430;-71
2022/03/06 07:28:17;;;;;;;7.65;4.97;;;;;;;3.88;28.67;101882.25;5031563;28;20042;-71
2022/03/06 07:30:44;;;;;;;7.80;3.90;;;;;;;3.46;29.53;101886.41;5031095;28;20084;-71
2022/03/06 07:33:10;;;;;;;12.70;4.10;;;;;;;4.17;28.75;101892.97;5030342;28;20120;-70
2022/03/06 07:35:37;;;;;;;8.95;4.05;;;;;;;3.33;30.03;101895.97;5031521;28;20049;-70
2022/03/06 07:38:03;;;;;;;11.30;4.15;;;;;;;3.29;29.49;101900.59;5030618;28;20074;-70
2022/03/06 07:40:30;;;;;;;11.07;4.60;;;;;;;3.10;30.00;101899.84;5031330;28;20124;-70
2022/03/06 07:42:57;;;;;;;13.13;4.60;;;;;;;3.03;30.41;101903.78;5032016;28;20076;-71
2022/03/06 07:45:24;;;;;;;7.40;4.22;;;;;;;3.24;29.50;101907.94;5031744;28;20076;-71
2022/03/06 07:47:50;;;;;;;6.05;3.35;;;;;;;3.05;29.76;101907.22;5030980;28;20354;-71
2022/03/06 07:50:18;;;;;;;6.85;3.88;;;;;;;3.22;29.33;101903.66;5029627;28;20059;-70
2022/03/06 07:52:44;;;;;;;10.40;4.00;;;;;;;3.31;29.48;101895.22;5031281;28;20088;-70
2022/03/06 07:55:11;;;;;;;10.48;4.20;;;;;;;3.90;28.96;101901.59;5034220;28;20136;-71
2022/03/06 07:57:38;;;;;;;9.48;4.57;;;;;;;4.02;28.79;101892.91;5048740;28;20129;-71
2022/03/06 08:00:07;;;;;;;6.53;4.15;;;;;;;3.41;29.39;101899.03;5051150;28;20045;-70
2022/03/06 08:02:34;;;;;;;9.02;4.80;;;;;;;3.59;29.58;101908.66;5052724;28;20156;-70
2022/03/06 08:05:00;;;;;;;12.40;4.90;;;;;;;3.57;29.56;101909.66;5055734;28;20049;-71
2022/03/06 08:07:27;;;;;;;9.90;4.55;;;;;;;3.00;30.27;101911.94;5053623;28;20127;-71
2022/03/06 08:09:53;;;;;;;11.10;4.95;;;;;;;4.41;28.57;101901.31;5053633;28;20458;-71
2022/03/06 08:12:25;;;;;;;11.07;6.00;;;;;;;4.04;29.44;101903.47;5054191;28;20072;-71
2022/03/06 08:14:53;;;;;;;10.48;6.35;;;;;;;4.35;29.03;101907.84;5053787;28;20826;-70
2022/03/06 08:17:19;;;;;;;9.35;5.82;;;;;;;4.62;29.05;101909.81;5054668;28;20045;-70
2022/03/06 08:19:46;;;;;;;10.73;7.07;;;;;;;4.97;28.45;101907.66;5053202;28;20128;-71
2022/03/06 08:22:13;;;;;;;9.60;6.60;;;;;;;5.38;28.49;101913.03;5053879;28;20132;-71
2022/03/06 08:24:40;;;;;;;14.52;7.45;;;;;;;4.95;29.20;101906.91;5053465;28;20438;-71
2022/03/06 08:27:06;;;;;;;11.10;7.70;;;;;;;5.03;28.58;101909.94;5054194;28;20083;-71
2022/03/06 08:29:33;;;;;;;11.38;7.70;;;;;;;5.19;28.33;101909.84;5051877;28;20044;-71
2022/03/06 08:32:01;;;;;;;12.45;7.55;;;;;;;5.12;29.38;101904.06;5054301;28;20045;-70
2022/03/06 08:34:27;;;;;;;15.48;8.55;;;;;;;5.16;29.14;101916.22;5053994;28;20456;-71
2022/03/06 08:36:53;;;;;;;12.50;7.97;;;;;;;5.11;29.13;101914.78;5054080;28;20429;-71
2022/03/06 08:39:20;;;;;;;11.43;7.85;;;;;;;5.01;29.01;101922.50;5053644;28;20051;-71
2022/03/06 08:41:47;;;;;;;14.30;8.93;;;;;;;5.03;29.17;101921.44;5054308;28;20135;-70
2022/03/06 08:44:13;;;;;;;12.50;8.18;;;;;;;5.59;28.57;101931.25;5053808;28;20118;-70
2022/03/06 08:46:40;;;;;;;10.57;8.55;;;;;;;5.24;29.23;101923.72;5052763;28;20049;-70
2022/03/06 08:49:06;;;;;;;15.30;10.02;;;;;;;5.24;29.33;101929.88;5052570;28;20045;-71
2022/03/06 08:51:33;;;;;;;13.52;9.45;;;;;;;5.19;30.04;101928.47;5052322;28;20080;-70
2022/03/06 08:54:00;;;;;;;15.02;10.15;;;;;;;5.62;29.28;101918.63;5045443;28;20381;-71
2022/03/06 08:56:26;;;;;;;16.20;9.75;;;;;;;5.53;29.04;101927.22;5053036;28;20056;-71
2022/03/06 08:58:53;;;;;;;15.43;9.77;;;;;;;5.16;29.81;101923.34;5053662;28;20140;-73
2022/03/06 09:01:19;;;;;;;15.77;9.40;;;;;;;4.84;30.33;101930.66;5051002;28;20168;-71
2022/03/06 09:03:46;;;;;;;17.42;10.20;;;;;;;4.64;30.89;101930.03;5052416;28;20063;-72
2022/03/06 09:06:13;;;;;;;19.33;10.02;;;;;;;4.85;31.29;101929.69;5051937;28;20043;-73
2022/03/06 09:08:39;;;;;;;17.30;9.70;;;;;;;5.35;30.34;101931.00;5053048;28;20072;-73
2022/03/06 09:11:06;;;;;;;15.82;9.75;;;;;;;5.50;30.31;101925.59;5052753;28;20053;-72
2022/03/06 09:13:34;;;;;;;17.70;9.57;;;;;;;5.64;30.00;101932.69;5046821;28;20107;-72
2022/03/06 09:16:01;;;;;;;14.25;9.80;;;;;;;5.46;30.37;101929.41;5051316;28;20051;-73
2022/03/06 09:18:28;;;;;;;12.18;9.40;;;;;;;5.72;30.17;101930.38;5050804;28;20124;-71
2022/03/06 09:20:54;;;;;;;18.20;9.25;;;;;;;5.76;30.17;101933.69;5052702;28;20052;-73
2022/03/06 09:23:21;;;;;;;12.68;7.90;;;;;;;5.32;30.57;101932.09;5053811;28;20374;-72
2022/03/06 09:25:47;;;;;;;13.07;8.32;;;;;;;5.77;30.19;101922.97;5052271;28;20127;-71
2022/03/06 09:28:14;;;;;;;18.42;8.15;;;;;;;5.62;30.45;101928.41;5052444;28;20500;-72
2022/03/06 09:30:42;;;;;;;10.32;7.65;;;;;;;6.11;29.83;101926.06;5055705;28;20083;-72
2022/03/06 09:33:09;;;;;;;14.77;7.20;;;;;;;5.38;31.00;101923.69;5053459;28;20051;-72
2022/03/06 09:35:35;;;;;;;13.77;7.55;;;;;;;5.56;30.57;101932.34;5053863;28;20075;-71
2022/03/06 09:38:02;;;;;;;15.02;7.80;;;;;;;6.13;29.90;101929.47;5051139;28;20128;-71
2022/03/06 09:40:29;;;;;;;12.07;5.85;;;;;;;5.20;30.99;101927.53;5051789;28;20056;-71
2022/03/06 09:42:55;;;;;;;11.25;5.40;;;;;;;4.73;31.56;101926.00;5053336;28;20049;-72
2022/03/06 09:45:23;;;;;;;9.43;5.72;;;;;;;5.61;30.43;101921.38;5053630;28;20045;-72
2022/03/06 09:47:50;;;;;;;8.05;5.10;;;;;;;5.33;30.67;101916.97;5051767;28;20049;-71
2022/03/06 09:50:17;;;;;;;11.93;6.32;;;;;;;5.64;30.33;101919.38;5052568;28;20128;-72
2022/03/06 09:52:44;;;;;;;11.75;5.97;;;;;;;5.75;30.33;101927.53;5053397;28;20073;-71
2022/03/06 09:55:11;;;;;;;11.20;5.03;;;;;;;5.86;30.11;101929.47;5053366;28;20518;-72
2022/03/06 09:57:38;;;;;;;11.25;6.28;;;;;;;5.17;30.13;101933.88;5052168;28;20499;-72
2022/03/06 10:00:08;;;;;;;15.43;5.80;;;;;;;5.14;30.62;101934.06;5050382;28;20132;-72
2022/03/06 10:02:54;;;;;;;11.93;5.55;;;;;;;4.67;31.03;101932.53;5052253;28;20139;-72
2022/03/06 10:05:36;;;;;;;7.47;4.93;;;;;;;5.41;30.72;101925.31;5052069;28;20049;-72
2022/03/06 10:08:18;;;;;;;7.95;4.60;;;;;;;5.13;30.75;101926.19;5052437;28;20049;-73
2022/03/06 10:10:46;;;;;;;12.52;4.97;;;;;;;5.41;30.43;101934.16;5052233;28;20080;-72
2022/03/06 10:13:20;;;;;;;10.55;4.43;;;;;;;5.87;29.64;101936.53;5051187;28;20128;-71
2022/03/06 10:16:09;;;;;;;9.13;4.90;;;;;;;5.66;29.49;101930.78;5052032;28;20124;-72
2022/03/06 10:18:40;;;;;;;9.98;4.60;;;;;;;4.28;30.82;101939.22;5050859;28;20076;-71
2022/03/06 10:21:32;;;;;;;6.13;3.92;;;;;;;4.70;30.83;101937.66;5050814;28;20049;-72
2022/03/06 10:24:00;;;;;;;;;;;;;;;5.23;30.58;101928.19;5050874;28;20484;-71
2022/03/06 10:26:28;;;;;;;7.22;4.53;;;;;;;5.73;29.73;101924.13;5052324;28;20020;-71
2022/03/06 10:28:57;;;;;;;8.45;5.22;;;;;;;5.05;30.09;101918.69;5050692;28;20465;-72
2022/03/06 10:31:29;;;;;;;10.18;4.85;;;;;;;5.60;29.53;101928.53;5049534;28;20548;-71
2022/03/06 10:33:57;;;;;;;10.82;4.20;;;;;;;5.61;29.33;101929.38;5049932;28;20057;-72
2022/03/06 10:36:51;;;;;;;10.85;5.05;;;;;;;5.81;29.31;101928.09;5051138;28;20048;-72
2022/03/06 10:39:22;;;;;;;14.20;5.20;;;;;;;5.88;28.85;101924.06;5052285;28;20132;-72
2022/03/06 10:41:51;;;;;;;11.60;4.38;;;;;;;6.22;28.59;101923.56;5052236;28;20099;-72
2022/03/06 10:44:19;;;;;;;11.13;5.07;;;;;;;5.28;29.33;101928.75;5035505;28;20045;-71
2022/03/06 10:47:04;;;;;;;11.00;4.63;;;;;;;5.98;29.65;101931.34;5052010;28;20135;-72
2022/03/06 10:49:33;;;;;;;8.32;4.65;;;;;;;5.47;29.56;101927.59;5051048;28;20460;-72
2022/03/06 10:52:17;;;;;;;11.55;4.90;;;;;;;5.76;29.08;101923.91;5052607;28;20045;-72
2022/03/06 10:54:55;;;;;;;9.80;4.60;;;;;;;5.65;29.17;101930.88;5052698;28;20053;-71
2022/03/06 10:57:22;;;;;;;6.43;4.18;;;;;;;5.38;29.81;101939.66;5056388;28;20048;-70
2022/03/06 10:59:50;;;;;;;7.65;4.63;;;;;;;5.48;29.34;101932.81;5056420;28;20484;-72
2022/03/06 11:02:17;;;;;;;8.77;4.70;;;;;;;5.61;29.08;101927.56;5054555;28;20053;-72
2022/03/06 11:04:47;;;;;;;11.30;4.43;;;;;;;6.27;27.91;101931.25;5053895;28;20052;-72
2022/03/06 11:07:14;;;;;;;9.30;4.55;;;;;;;5.79;28.55;101928.19;5051294;28;20055;-73
2022/03/06 11:09:41;;;;;;;7.85;4.00;;;;;;;5.43;28.79;101934.06;5050956;28;20055;-72
2022/03/06 11:12:08;;;;;;;11.90;4.85;;;;;;;4.82;29.48;101931.59;5051340;28;20072;-73
2022/03/06 11:14:34;;;;;;;8.55;4.50;;;;;;;4.93;29.39;101930.91;5051953;28;20128;-73
2022/03/06 11:17:01;;;;;;;9.52;4.15;;;;;;;5.45;28.73;101922.34;5051059;28;20151;-73
2022/03/06 11:19:32;;;;;;;10.90;5.13;;;;;;;5.14;28.69;101922.56;5052142;28;20048;-73
2022/03/06 11:22:32;;;;;;;9.30;4.40;;;;;;;4.68;29.17;101914.75;5051793;28;20140;-72
2022/03/06 11:25:07;;;;;;;7.60;4.22;;;;;;;4.39;29.51;101924.50;5051578;28;20309;-73
2022/03/06 11:28:05;;;;;;;11.35;5.13;;;;;;;4.86;29.06;101924.28;5050405;28;20071;-74
2022/03/06 11:30:31;;;;;;;10.73;4.60;;;;;;;4.89;28.99;101928.56;5052281;28;20037;-72
2022/03/06 11:33:06;;;;;;;13.63;4.50;;;;;;;5.09;28.28;101925.53;5053792;28;20045;-73